createdAt,value
2017-06-30T00:00:49.351Z,14.20
2017-06-30T00:03:15.750Z,14.20
2017-06-30T00:05:44.381Z,14.20
2017-06-30T00:08:10.779Z,14.20
2017-06-30T00:10:37.166Z,14.20
2017-06-30T00:13:03.532Z,14.20
2017-06-30T00:15:30.240Z,14.20
2017-06-30T00:17:56.689Z,14.20
2017-06-30T00:20:23.065Z,14.20
2017-06-30T00:22:49.435Z,14.20
2017-06-30T00:25:16.560Z,14.10
2017-06-30T00:27:42.946Z,14.10
2017-06-30T00:30:09.337Z,14.10
2017-06-30T00:32:36.725Z,14.10
2017-06-30T00:35:03.086Z,14.10
2017-06-30T00:37:29.450Z,14.10
2017-06-30T00:39:55.829Z,14.10
2017-06-30T00:42:22.162Z,14.20
2017-06-30T00:44:48.534Z,14.10
2017-06-30T00:47:14.908Z,14.10
2017-06-30T00:49:41.602Z,14.20
2017-06-30T00:52:07.963Z,14.20
2017-06-30T00:54:34.307Z,14.10
2017-06-30T00:57:00.725Z,14.10
2017-06-30T00:59:27.074Z,14.10
2017-06-30T01:01:53.825Z,14.20
2017-06-30T01:04:20.210Z,14.20
2017-06-30T01:06:47.341Z,14.20
2017-06-30T01:09:13.724Z,14.20
2017-06-30T01:11:40.092Z,14.10
2017-06-30T01:14:06.452Z,14.10
2017-06-30T01:16:32.792Z,14.00
2017-06-30T01:18:59.613Z,14.10
2017-06-30T01:21:26.733Z,14.10
2017-06-30T01:23:53.132Z,14.00
2017-06-30T01:26:19.491Z,14.10
2017-06-30T01:28:46.603Z,14.20
2017-06-30T01:31:12.988Z,14.10
2017-06-30T01:33:39.402Z,14.20
2017-06-30T01:36:06.071Z,14.10
2017-06-30T01:38:32.435Z,14.20
2017-06-30T01:40:58.856Z,14.10
2017-06-30T01:43:25.242Z,14.10
2017-06-30T01:45:51.630Z,14.10
2017-06-30T01:48:18.071Z,14.00
2017-06-30T01:50:44.498Z,14.00
2017-06-30T01:53:11.178Z,14.00
2017-06-30T01:55:38.313Z,14.00
2017-06-30T01:58:04.707Z,14.00
2017-06-30T02:00:31.090Z,14.00
2017-06-30T02:02:58.205Z,14.00
2017-06-30T02:05:24.616Z,14.00
2017-06-30T02:07:51.035Z,14.00
2017-06-30T02:10:18.666Z,14.00
2017-06-30T02:12:45.850Z,14.00
2017-06-30T02:15:12.205Z,14.00
2017-06-30T02:17:38.685Z,13.90
2017-06-30T02:20:05.796Z,14.00
2017-06-30T02:22:32.551Z,13.90
2017-06-30T02:24:58.893Z,14.00
2017-06-30T02:27:26.003Z,14.00
2017-06-30T02:29:52.361Z,14.00
2017-06-30T02:32:19.470Z,14.00
2017-06-30T02:34:46.267Z,14.00
2017-06-30T02:37:12.690Z,14.00
2017-06-30T02:39:39.065Z,14.00
2017-06-30T02:42:05.417Z,14.00
2017-06-30T02:44:31.750Z,14.00
2017-06-30T02:46:58.684Z,14.00
2017-06-30T02:49:24.972Z,14.00
2017-06-30T02:51:51.390Z,14.00
2017-06-30T02:54:17.753Z,14.00
2017-06-30T02:56:45.140Z,14.00
2017-06-30T02:59:11.900Z,14.00
2017-06-30T03:01:38.271Z,13.90
2017-06-30T03:04:04.617Z,13.90
2017-06-30T03:06:31.019Z,13.90
2017-06-30T03:08:57.375Z,13.90
2017-06-30T03:11:24.147Z,13.80
2017-06-30T03:13:50.547Z,13.80
2017-06-30T03:16:16.948Z,13.90
2017-06-30T03:18:43.361Z,13.90
2017-06-30T03:21:09.708Z,13.80
2017-06-30T03:23:36.419Z,13.80
2017-06-30T03:26:03.807Z,13.80
2017-06-30T03:28:30.170Z,13.80
2017-06-30T03:30:57.285Z,13.80
2017-06-30T03:33:23.633Z,13.80
2017-06-30T03:35:50.200Z,13.90
2017-06-30T03:38:17.310Z,13.90
2017-06-30T03:40:43.651Z,13.90
2017-06-30T03:43:10.063Z,13.90
2017-06-30T03:45:36.431Z,13.90
2017-06-30T03:48:02.791Z,13.90
2017-06-30T03:50:29.128Z,13.90
2017-06-30T03:52:55.525Z,14.00
2017-06-30T03:55:22.641Z,14.00
2017-06-30T03:57:48.997Z,14.00
2017-06-30T04:00:15.362Z,14.10
2017-06-30T04:02:42.053Z,14.10
2017-06-30T04:05:08.394Z,14.10
2017-06-30T04:07:34.767Z,14.10
2017-06-30T04:10:01.307Z,14.20
2017-06-30T04:12:27.649Z,14.20
2017-06-30T04:14:54.042Z,14.20
2017-06-30T04:17:20.480Z,14.20
2017-06-30T04:19:46.925Z,14.20
2017-06-30T04:22:13.371Z,14.20
2017-06-30T04:24:39.754Z,14.20
2017-06-30T04:27:06.147Z,14.30
2017-06-30T04:29:32.563Z,14.40
2017-06-30T04:31:58.937Z,14.50
2017-06-30T04:34:25.697Z,14.60
2017-06-30T04:36:52.105Z,14.70
2017-06-30T04:39:19.226Z,14.90
2017-06-30T04:41:45.631Z,14.90
2017-06-30T04:44:12.839Z,14.90
2017-06-30T04:46:39.992Z,14.90
2017-06-30T04:49:06.420Z,14.90
2017-06-30T04:51:33.919Z,14.90
2017-06-30T04:54:00.391Z,14.90
2017-06-30T04:56:27.570Z,14.90
2017-06-30T04:58:53.990Z,14.90
2017-06-30T05:01:20.600Z,14.90
2017-06-30T05:03:47.372Z,14.90
2017-06-30T05:06:13.786Z,14.90
2017-06-30T05:08:40.946Z,14.80
2017-06-30T05:11:08.052Z,14.80
2017-06-30T05:13:34.445Z,14.80
2017-06-30T05:16:00.840Z,14.80
2017-06-30T05:18:28.021Z,14.80
2017-06-30T05:20:54.753Z,14.80
2017-06-30T05:23:21.133Z,14.90
2017-06-30T05:25:47.540Z,15.00
2017-06-30T05:28:13.976Z,15.10
2017-06-30T05:30:40.376Z,15.20
2017-06-30T05:33:06.811Z,15.20
2017-06-30T05:35:33.233Z,15.20
2017-06-30T05:38:00.715Z,15.30
2017-06-30T05:40:27.108Z,15.30
2017-06-30T05:42:54.235Z,15.50
2017-06-30T05:45:20.625Z,15.50
2017-06-30T05:47:47.047Z,15.60
2017-06-30T05:50:13.445Z,15.70
2017-06-30T05:52:39.810Z,15.70
2017-06-30T05:55:06.491Z,15.60
2017-06-30T05:57:32.872Z,15.50
2017-06-30T05:59:59.231Z,15.40
2017-06-30T06:02:25.654Z,15.30
2017-06-30T06:04:52.023Z,15.40
2017-06-30T06:07:18.389Z,15.50
2017-06-30T06:09:44.740Z,15.60
2017-06-30T06:12:11.421Z,15.60
2017-06-30T06:14:37.732Z,15.70
2017-06-30T06:17:04.063Z,15.70
2017-06-30T06:19:30.507Z,15.70
2017-06-30T06:21:56.852Z,15.80
2017-06-30T06:24:23.948Z,15.90
2017-06-30T06:26:50.287Z,15.90
2017-06-30T06:29:16.943Z,15.90
2017-06-30T06:31:43.306Z,15.90
2017-06-30T06:34:09.622Z,15.90
2017-06-30T06:36:36.744Z,16.00
2017-06-30T06:39:03.165Z,16.00
2017-06-30T06:41:29.499Z,16.10
2017-06-30T06:43:55.815Z,16.30
2017-06-30T06:46:22.467Z,16.40
2017-06-30T06:48:48.803Z,16.50
2017-06-30T06:51:15.108Z,16.60
2017-06-30T06:53:41.446Z,16.70
2017-06-30T06:56:08.537Z,16.80
2017-06-30T06:58:34.880Z,16.80
2017-06-30T07:01:01.202Z,16.90
2017-06-30T07:03:27.846Z,17.00
2017-06-30T07:05:54.408Z,17.10
2017-06-30T07:08:20.776Z,17.20
2017-06-30T07:10:47.145Z,17.20
2017-06-30T07:13:13.515Z,17.30
2017-06-30T07:15:39.854Z,17.30
2017-06-30T07:18:06.223Z,17.20
2017-06-30T07:20:32.838Z,17.20
2017-06-30T07:22:59.929Z,17.20
2017-06-30T07:25:26.249Z,17.20
2017-06-30T07:27:52.599Z,17.30
2017-06-30T07:30:19.768Z,17.40
2017-06-30T07:32:46.125Z,17.40
2017-06-30T07:35:13.230Z,17.30
2017-06-30T07:37:39.880Z,17.30
2017-06-30T07:40:06.273Z,17.30
2017-06-30T07:42:32.604Z,17.20
2017-06-30T07:44:58.971Z,17.20
2017-06-30T07:47:25.300Z,17.30
2017-06-30T07:49:51.642Z,17.30
2017-06-30T07:52:18.022Z,17.40
2017-06-30T07:54:44.704Z,17.40
2017-06-30T07:57:11.044Z,17.50
2017-06-30T07:59:38.138Z,17.60
2017-06-30T08:02:04.516Z,17.50
2017-06-30T08:04:30.855Z,17.70
2017-06-30T08:06:57.511Z,17.70
2017-06-30T08:09:23.834Z,17.80
2017-06-30T08:11:50.164Z,18.10
2017-06-30T08:14:16.561Z,18.40
2017-06-30T08:16:49.920Z,18.40
2017-06-30T08:19:16.582Z,18.40
2017-06-30T08:21:42.932Z,18.40
2017-06-30T08:24:09.298Z,18.30
2017-06-30T08:26:35.659Z,18.30
2017-06-30T08:29:02.009Z,18.30
2017-06-30T08:31:28.335Z,18.40
2017-06-30T08:33:54.700Z,18.50
2017-06-30T08:36:21.377Z,18.70
2017-06-30T08:38:47.759Z,18.80
2017-06-30T08:41:14.159Z,18.80
2017-06-30T08:43:40.512Z,18.90
2017-06-30T08:46:07.613Z,19.00
2017-06-30T08:48:34.067Z,19.00
2017-06-30T08:51:00.470Z,19.00
2017-06-30T08:53:26.775Z,19.10
2017-06-30T08:55:53.127Z,19.20
2017-06-30T08:58:19.482Z,19.30
2017-06-30T09:00:46.128Z,19.40
2017-06-30T09:03:12.494Z,19.60
2017-06-30T09:05:38.850Z,19.60
2017-06-30T09:08:05.199Z,19.60
2017-06-30T09:10:31.590Z,19.60
2017-06-30T09:12:58.277Z,19.70
2017-06-30T09:15:24.624Z,19.90
2017-06-30T09:17:51.798Z,20.00
2017-06-30T09:20:18.154Z,20.00
2017-06-30T09:22:44.501Z,20.10
2017-06-30T09:25:10.859Z,20.20
2017-06-30T09:27:37.878Z,20.30
2017-06-30T09:30:04.640Z,20.30
2017-06-30T09:32:30.998Z,20.40
2017-06-30T09:34:57.374Z,20.60
2017-06-30T09:37:23.725Z,20.60
2017-06-30T09:39:50.834Z,20.40
2017-06-30T09:42:17.189Z,20.40
2017-06-30T09:44:50.481Z,20.50
2017-06-30T09:47:17.129Z,20.60
2017-06-30T09:49:43.473Z,20.60
2017-06-30T09:52:10.578Z,21.10
2017-06-30T09:54:36.967Z,21.00
2017-06-30T09:57:03.307Z,21.30
2017-06-30T09:59:29.634Z,21.50
2017-06-30T10:01:55.975Z,21.50
2017-06-30T10:04:22.325Z,21.50
2017-06-30T10:06:48.719Z,21.50
2017-06-30T10:09:15.052Z,21.80
2017-06-30T10:11:41.746Z,22.10
2017-06-30T10:14:08.086Z,22.50
2017-06-30T10:16:35.182Z,22.90
2017-06-30T10:19:01.566Z,22.90
2017-06-30T10:21:28.632Z,23.50
2017-06-30T10:23:55.417Z,23.50
2017-06-30T10:26:21.774Z,23.80
2017-06-30T10:28:48.117Z,24.20
2017-06-30T10:31:14.482Z,24.50
2017-06-30T10:33:40.806Z,24.60
2017-06-30T10:36:07.154Z,24.70
2017-06-30T10:38:33.507Z,24.90
2017-06-30T10:41:00.152Z,25.20
2017-06-30T10:43:26.463Z,25.40
2017-06-30T10:45:52.870Z,25.50
2017-06-30T10:48:19.201Z,25.60
2017-06-30T10:50:45.533Z,25.60
2017-06-30T10:53:11.889Z,25.50
2017-06-30T10:55:38.227Z,25.40
2017-06-30T10:58:04.857Z,25.50
2017-06-30T11:00:31.225Z,25.70
2017-06-30T11:02:57.571Z,26.10
2017-06-30T11:05:23.927Z,26.30
2017-06-30T11:07:50.283Z,26.00
2017-06-30T11:10:16.648Z,25.70
2017-06-30T11:12:43.044Z,26.00
2017-06-30T11:15:10.498Z,26.80
2017-06-30T11:17:36.998Z,26.70
2017-06-30T11:20:03.381Z,27.10
2017-06-30T11:22:29.734Z,27.50
2017-06-30T11:24:56.122Z,27.70
2017-06-30T11:27:22.479Z,27.80
2017-06-30T11:29:48.813Z,27.80
2017-06-30T11:32:15.454Z,27.80
2017-06-30T11:34:41.810Z,27.90
2017-06-30T11:37:08.157Z,28.00
2017-06-30T11:39:34.470Z,28.10
2017-06-30T11:42:00.817Z,28.30
2017-06-30T11:44:27.475Z,28.40
2017-06-30T11:46:54.557Z,28.80
2017-06-30T11:49:20.908Z,28.70
2017-06-30T11:51:47.287Z,28.80
2017-06-30T11:54:13.733Z,28.80
2017-06-30T11:56:40.445Z,29.00
2017-06-30T11:59:07.504Z,29.30
2017-06-30T12:01:34.602Z,29.40
2017-06-30T12:04:00.969Z,29.40
2017-06-30T12:06:27.370Z,29.50
2017-06-30T12:08:53.739Z,29.50
2017-06-30T12:11:20.824Z,30.10
2017-06-30T12:13:47.550Z,30.10
2017-06-30T12:16:13.877Z,30.30
2017-06-30T12:18:40.269Z,30.40
2017-06-30T12:21:06.627Z,30.40
2017-06-30T12:23:32.957Z,30.50
2017-06-30T12:25:59.320Z,30.60
2017-06-30T12:28:25.722Z,30.80
2017-06-30T12:30:52.415Z,31.20
2017-06-30T12:33:18.820Z,31.50
2017-06-30T12:35:45.211Z,31.50
2017-06-30T12:38:11.581Z,31.50
2017-06-30T12:40:37.944Z,31.70
2017-06-30T12:43:05.037Z,32.00
2017-06-30T12:45:31.410Z,31.90
2017-06-30T12:47:58.032Z,32.10
2017-06-30T12:50:24.435Z,32.20
2017-06-30T12:52:50.784Z,32.00
2017-06-30T12:55:17.166Z,31.90
2017-06-30T12:57:43.546Z,31.90
2017-06-30T13:00:10.685Z,31.30
2017-06-30T13:02:37.037Z,30.90
2017-06-30T13:05:03.788Z,30.90
2017-06-30T13:07:30.124Z,31.20
2017-06-30T13:09:57.190Z,31.10
2017-06-30T13:12:23.579Z,31.10
2017-06-30T13:14:50.004Z,31.20
2017-06-30T13:17:16.480Z,31.60
2017-06-30T13:19:43.669Z,32.50
2017-06-30T13:22:10.347Z,32.40
2017-06-30T13:24:36.694Z,32.80
2017-06-30T13:27:03.768Z,33.20
2017-06-30T13:29:30.051Z,33.10
2017-06-30T13:31:56.380Z,33.20
2017-06-30T13:34:22.763Z,33.10
2017-06-30T13:36:49.092Z,32.90
2017-06-30T13:39:15.431Z,32.60
2017-06-30T13:41:41.780Z,32.00
2017-06-30T13:44:08.162Z,31.60
2017-06-30T13:46:34.832Z,31.40
2017-06-30T13:49:01.195Z,31.40
2017-06-30T13:51:28.307Z,31.80
2017-06-30T13:53:54.682Z,31.70
2017-06-30T13:56:21.024Z,31.50
2017-06-30T13:58:47.655Z,31.20
2017-06-30T14:01:13.975Z,30.90
2017-06-30T14:03:41.065Z,30.40
2017-06-30T14:06:07.413Z,30.40
2017-06-30T14:08:33.762Z,30.00
2017-06-30T14:11:00.122Z,29.50
2017-06-30T14:13:26.420Z,29.20
2017-06-30T14:15:53.149Z,28.80
2017-06-30T14:18:19.518Z,28.30
2017-06-30T14:20:45.890Z,27.80
2017-06-30T14:23:12.302Z,27.40
2017-06-30T14:25:38.670Z,27.00
2017-06-30T14:28:05.041Z,26.70
2017-06-30T14:30:31.384Z,26.50
2017-06-30T14:32:58.030Z,26.30
2017-06-30T14:35:24.374Z,26.00
2017-06-30T14:37:50.726Z,25.90
2017-06-30T14:40:17.114Z,25.70
2017-06-30T14:42:43.493Z,25.50
2017-06-30T14:45:10.617Z,25.20
2017-06-30T14:47:36.982Z,25.20
2017-06-30T14:50:03.640Z,25.10
2017-06-30T14:52:30.006Z,25.00
2017-06-30T14:54:56.358Z,24.80
2017-06-30T14:57:22.721Z,24.80
2017-06-30T14:59:49.095Z,24.70
2017-06-30T15:02:15.464Z,24.60
2017-06-30T15:04:41.793Z,24.50
2017-06-30T15:07:08.909Z,24.30
2017-06-30T15:09:35.285Z,24.20
2017-06-30T15:12:01.643Z,24.20
2017-06-30T15:14:28.285Z,24.10
2017-06-30T15:16:54.614Z,24.00
2017-06-30T15:19:21.063Z,23.90
2017-06-30T15:21:47.481Z,23.70
2017-06-30T15:24:13.848Z,23.60
2017-06-30T15:26:47.924Z,23.50
2017-06-30T15:29:14.294Z,23.50
2017-06-30T15:31:40.919Z,23.40
2017-06-30T15:34:07.283Z,23.30
2017-06-30T15:36:33.677Z,23.20
2017-06-30T15:39:00.018Z,23.00
2017-06-30T15:41:26.370Z,22.80
2017-06-30T15:43:52.770Z,22.70
2017-06-30T15:46:19.158Z,22.50
2017-06-30T15:48:45.796Z,22.40
2017-06-30T15:51:12.134Z,22.30
2017-06-30T15:53:38.480Z,22.20
2017-06-30T15:56:04.838Z,22.10
2017-06-30T15:58:31.928Z,21.80
2017-06-30T16:00:58.311Z,21.80
2017-06-30T16:03:25.416Z,21.40
2017-06-30T16:05:52.051Z,21.30
2017-06-30T16:08:18.473Z,21.10
2017-06-30T16:10:44.862Z,20.90
2017-06-30T16:13:11.966Z,20.40
2017-06-30T16:15:38.323Z,20.40
2017-06-30T16:18:05.558Z,20.10
2017-06-30T16:20:31.900Z,20.00
2017-06-30T16:22:58.522Z,19.70
2017-06-30T16:25:24.928Z,19.30
2017-06-30T16:27:51.306Z,18.90
2017-06-30T16:30:17.657Z,18.60
2017-06-30T16:32:44.002Z,18.40
2017-06-30T16:35:10.390Z,18.20
2017-06-30T16:37:36.724Z,17.90
2017-06-30T16:40:04.307Z,17.60
2017-06-30T16:42:30.655Z,17.60
2017-06-30T16:44:57.070Z,17.50
2017-06-30T16:47:23.435Z,17.40
2017-06-30T16:49:49.767Z,17.40
2017-06-30T16:52:16.126Z,17.40
2017-06-30T16:54:43.463Z,17.50
2017-06-30T16:57:10.111Z,17.50
2017-06-30T16:59:36.437Z,17.60
2017-06-30T17:02:02.786Z,18.00
2017-06-30T17:04:29.143Z,18.70
2017-06-30T17:06:55.483Z,19.40
2017-06-30T17:09:21.842Z,19.80
2017-06-30T17:11:48.216Z,20.00
2017-06-30T17:14:14.919Z,20.00
2017-06-30T17:16:41.322Z,19.80
2017-06-30T17:19:07.716Z,19.60
2017-06-30T17:21:34.111Z,19.50
2017-06-30T17:24:00.494Z,19.20
2017-06-30T17:26:26.852Z,19.10
2017-06-30T17:28:53.289Z,18.70
2017-06-30T17:31:19.954Z,18.30
2017-06-30T17:33:47.042Z,18.00
2017-06-30T17:36:13.403Z,17.90
2017-06-30T17:38:39.804Z,17.80
2017-06-30T17:41:06.136Z,17.70
2017-06-30T17:43:32.745Z,17.60
2017-06-30T17:45:59.086Z,17.50
2017-06-30T17:48:25.429Z,17.40
2017-06-30T17:50:51.819Z,17.30
2017-06-30T17:53:18.941Z,17.20
2017-06-30T17:55:45.586Z,17.20
2017-06-30T17:58:12.716Z,17.20
2017-06-30T18:00:39.137Z,17.20
2017-06-30T18:03:05.502Z,17.40
2017-06-30T18:05:31.898Z,17.60
2017-06-30T18:07:58.215Z,17.80
2017-06-30T18:10:31.517Z,18.00
2017-06-30T18:12:58.180Z,18.00
2017-06-30T18:15:24.509Z,17.80
2017-06-30T18:17:51.016Z,17.80
2017-06-30T18:20:17.428Z,17.50
2017-06-30T18:22:43.777Z,17.40
2017-06-30T18:25:10.172Z,17.20
2017-06-30T18:27:36.757Z,17.10
2017-06-30T18:30:03.529Z,17.10
2017-06-30T18:32:30.636Z,16.90
2017-06-30T18:34:56.967Z,16.90
2017-06-30T18:37:23.309Z,16.80
2017-06-30T18:39:49.717Z,16.80
2017-06-30T18:42:16.380Z,16.80
2017-06-30T18:44:42.751Z,16.80
2017-06-30T18:47:09.112Z,16.80
2017-06-30T18:49:35.512Z,16.80
2017-06-30T18:52:01.853Z,16.80
2017-06-30T18:54:28.267Z,16.80
2017-06-30T18:56:54.629Z,16.70
2017-06-30T18:59:21.020Z,16.70
2017-06-30T19:01:47.389Z,16.60
2017-06-30T19:04:13.751Z,16.50
2017-06-30T19:06:40.483Z,16.40
2017-06-30T19:09:06.855Z,16.40
2017-06-30T19:11:33.210Z,16.30
2017-06-30T19:13:59.880Z,16.20
2017-06-30T19:16:26.282Z,16.20
2017-06-30T19:18:52.684Z,16.20
2017-06-30T19:21:19.073Z,16.10
2017-06-30T19:23:45.505Z,16.00
2017-06-30T19:26:12.169Z,15.90
2017-06-30T19:28:38.548Z,15.80
2017-06-30T19:31:04.904Z,15.70
2017-06-30T19:33:31.263Z,15.70
2017-06-30T19:35:57.654Z,15.60
2017-06-30T19:38:24.036Z,15.60
2017-06-30T19:40:50.396Z,15.50
2017-06-30T19:43:30.384Z,15.50
2017-06-30T19:45:56.779Z,15.50
2017-06-30T19:48:23.184Z,15.50
2017-06-30T19:50:49.592Z,15.60
2017-06-30T19:53:18.715Z,15.50
2017-06-30T19:55:45.167Z,15.60
2017-06-30T19:58:11.600Z,15.70
2017-06-30T20:00:38.402Z,15.70
2017-06-30T20:03:04.771Z,15.70
2017-06-30T20:05:31.141Z,15.70
2017-06-30T20:08:05.263Z,15.70
2017-06-30T20:10:31.644Z,15.70
2017-06-30T20:12:58.019Z,15.70
2017-06-30T20:15:24.380Z,15.70
2017-06-30T20:17:51.071Z,15.60
2017-06-30T20:20:17.482Z,15.50
2017-06-30T20:22:43.815Z,15.50
2017-06-30T20:25:10.126Z,15.40
2017-06-30T20:27:36.498Z,15.40
2017-06-30T20:30:02.875Z,15.40
2017-06-30T20:32:29.198Z,15.50
2017-06-30T20:34:55.879Z,15.40
2017-06-30T20:37:22.998Z,15.40
2017-06-30T20:39:49.327Z,15.40
2017-06-30T20:42:15.709Z,15.40
2017-06-30T20:44:42.054Z,15.40
2017-06-30T20:47:08.444Z,15.30
2017-06-30T20:49:34.829Z,15.30
2017-06-30T20:52:01.487Z,15.30
2017-06-30T20:54:27.828Z,15.30
2017-06-30T20:56:54.192Z,15.40
2017-06-30T20:59:20.577Z,15.40
2017-06-30T21:01:46.974Z,15.30
2017-06-30T21:04:13.369Z,15.30
2017-06-30T21:06:39.720Z,15.30
2017-06-30T21:09:06.313Z,15.30
2017-06-30T21:11:32.687Z,15.30
2017-06-30T21:13:59.082Z,15.20
2017-06-30T21:16:26.463Z,15.30
2017-06-30T21:18:52.908Z,15.20
2017-06-30T21:21:19.326Z,15.20
2017-06-30T21:23:45.701Z,15.20
2017-06-30T21:26:12.826Z,15.20
2017-06-30T21:28:39.493Z,15.20
2017-06-30T21:31:05.862Z,15.20
2017-06-30T21:33:32.258Z,15.30
2017-06-30T21:35:58.620Z,15.30
2017-06-30T21:38:25.022Z,15.30
2017-06-30T21:40:51.372Z,15.30
2017-06-30T21:43:17.707Z,15.30
2017-06-30T21:45:44.405Z,15.30
2017-06-30T21:48:10.774Z,15.30
2017-06-30T21:50:37.151Z,15.40
2017-06-30T21:53:03.553Z,15.40
2017-06-30T21:55:29.893Z,15.40
2017-06-30T21:57:56.283Z,15.40
2017-06-30T22:00:23.383Z,15.40
2017-06-30T22:02:50.073Z,15.40
2017-06-30T22:05:17.210Z,15.50
2017-06-30T22:07:43.602Z,15.50
2017-06-30T22:10:09.982Z,15.50
2017-06-30T22:12:36.321Z,15.50
2017-06-30T22:15:03.543Z,15.50
2017-06-30T22:17:29.890Z,15.50
2017-06-30T22:19:57.292Z,15.50
2017-06-30T22:22:23.654Z,15.50
2017-06-30T22:24:50.000Z,15.50
2017-06-30T22:27:16.370Z,15.50
2017-06-30T22:29:42.669Z,15.50
2017-06-30T22:32:09.410Z,15.40
2017-06-30T22:34:35.733Z,15.30
2017-06-30T22:37:02.103Z,15.30
2017-06-30T22:39:28.519Z,15.20
2017-06-30T22:41:54.874Z,15.20
2017-06-30T22:44:21.524Z,15.20
2017-06-30T22:46:47.903Z,15.30
2017-06-30T22:49:14.262Z,15.20
2017-06-30T22:51:40.624Z,15.30
2017-06-30T22:54:06.992Z,15.30
2017-06-30T22:56:33.675Z,15.30
2017-06-30T22:59:00.014Z,15.30
2017-06-30T23:01:26.358Z,15.30
2017-06-30T23:03:52.706Z,15.30
2017-06-30T23:06:19.146Z,15.30
2017-06-30T23:08:45.786Z,15.30
2017-06-30T23:11:12.105Z,15.30
2017-06-30T23:13:38.446Z,15.30
2017-06-30T23:16:04.803Z,15.20
2017-06-30T23:18:31.182Z,15.20
2017-06-30T23:20:57.869Z,15.20
2017-06-30T23:23:25.335Z,15.20
2017-06-30T23:25:51.809Z,15.20
2017-06-30T23:28:18.215Z,15.20
2017-06-30T23:30:44.625Z,15.10
2017-06-30T23:33:11.292Z,15.10
2017-06-30T23:35:38.378Z,15.10
2017-06-30T23:38:04.784Z,15.00
2017-06-30T23:40:31.928Z,15.10
2017-06-30T23:43:05.338Z,15.10
2017-06-30T23:45:31.995Z,15.10
2017-06-30T23:47:58.347Z,15.10
2017-06-30T23:50:24.759Z,15.10
2017-06-30T23:52:51.169Z,15.10
2017-06-30T23:55:17.572Z,15.10
2017-06-30T23:57:43.959Z,15.00
